Elko, Canada
Current Conditions -  °F | °C
As of 3:00 AM on Monday 26 Jan 2015 (Local Time) from CYXC Reporting Station
Broken Clouds Broken Clouds  
Wind Chill: 34°   Ceiling: 21000
Heat Index: 34°   Visibility: 25mi
Dew Point: 30°   Wind: 3mph
Humidity: 87%   Direction: 260°W
Pressure: 30.12"   Gusts: NA
Location:  49.3°N, 115.12°W
Report Text: CYXC 261000Z 26003KT 25SM FEW150 BKN210 01/M01 A3012 RMK AC1CI4 SLP220
Loading
Personal Weather Stations






























Interactive Weather Map New forecast layout! Learn more

10-Day Weather Forecast

Advertisements
Track Severe Weather on mobile